^^
Station Historical Data
Daily Summary for August 3, 2017 Units:  Both    English   Metric
« Previous Day
Next Day »
Daily Weekly Monthly Yearly Custom
  High: Low: Average:
Temperature: 75.0 °F /  23.9 °C 45.9 °F /  7.7 °C 60.2 °F /  15.7 °C
Dew Point: 38.8 °F /  3.8 °C 28.4 °F /  -2 °C 32.6 °F /  0.3 °C
Humidity: 60% 21% 37%
Wind Speed: 6.0mph /  9.7km/h - 0.6mph /  1km/h
Wind Gust: 10.0mph /  16.1km/h - -
Wind- - South
Pressure: 30.41 in /  1029.7 hPa 30.15 in /  1020.9 hPa -
Precipitation: 0.00 in /  0 mm    
Historical Graphs
 
 
Tabular Data for August 3, 2017
Time Temperature Dew Point Pressure Wind Wind Speed Wind Gust Humidity Rainfall Rate (Hourly) solar Conditions
00:04 51.8 °F /  11 °C 29.5 °F /  -1.4 °C 30.38in /  1028.7hPa Calm     42% 0.00in /  0mm 0.0 W/m2
00:10 51.4 °F /  10.8 °C 29.1 °F /  -1.6 °C 30.38in /  1028.7hPa Calm     42% 0.00in /  0mm 0.0 W/m2
00:16 51.3 °F /  10.7 °C 29.5 °F /  -1.4 °C 30.38in /  1028.7hPa Calm     43% 0.00in /  0mm 0.0 W/m2
00:23 50.7 °F /  10.4 °C 29.7 °F /  -1.3 °C 30.38in /  1028.7hPa Calm     44% 0.00in /  0mm 0.0 W/m2
00:29 50.4 °F /  10.2 °C 29.3 °F /  -1.5 °C 30.38in /  1028.7hPa Calm     44% 0.00in /  0mm 0.0 W/m2
00:35 50.2 °F /  10.1 °C 29.1 °F /  -1.6 °C 30.38in /  1028.7hPa Calm     44% 0.00in /  0mm 0.0 W/m2
00:41 49.8 °F /  9.9 °C 29.3 °F /  -1.5 °C 30.37in /  1028.3hPa Calm     45% 0.00in /  0mm 0.0 W/m2
00:47 49.5 °F /  9.7 °C 28.9 °F /  -1.7 °C 30.38in /  1028.7hPa Calm     45% 0.00in /  0mm 0.0 W/m2
00:53 49.3 °F /  9.6 °C 29.3 °F /  -1.5 °C 30.37in /  1028.3hPa Calm     46% 0.00in /  0mm 0.0 W/m2
00:59 49.1 °F /  9.5 °C 29.1 °F /  -1.6 °C 30.38in /  1028.7hPa Calm     46% 0.00in /  0mm 0.0 W/m2
01:06 49.1 °F /  9.5 °C 29.1 °F /  -1.6 °C 30.38in /  1028.7hPa Calm     46% 0.00in /  0mm 0.0 W/m2
01:12 49.1 °F /  9.5 °C 29.1 °F /  -1.6 °C 30.37in /  1028.3hPa Calm     46% 0.00in /  0mm 0.0 W/m2
01:18 48.9 °F /  9.4 °C 29.1 °F /  -1.6 °C 30.37in /  1028.3hPa Calm     46% 0.00in /  0mm 0.0 W/m2
01:24 48.9 °F /  9.4 °C 29.1 °F /  -1.6 °C 30.37in /  1028.3hPa Calm     46% 0.00in /  0mm 0.0 W/m2
01:30 48.7 °F /  9.3 °C 29.5 °F /  -1.4 °C 30.36in /  1028hPa Calm     47% 0.00in /  0mm 0.0 W/m2
01:36 48.6 °F /  9.2 °C 29.3 °F /  -1.5 °C 30.36in /  1028hPa Calm     47% 0.00in /  0mm 0.0 W/m2
01:43 48.4 °F /  9.1 °C 29.7 °F /  -1.3 °C 30.36in /  1028hPa Calm     48% 0.00in /  0mm 0.0 W/m2
01:49 48.2 °F /  9 °C 29.5 °F /  -1.4 °C 30.36in /  1028hPa Calm     48% 0.00in /  0mm 0.0 W/m2
01:55 48.0 °F /  8.9 °C 29.3 °F /  -1.5 °C 30.36in /  1028hPa Calm     48% 0.00in /  0mm 0.0 W/m2
02:01 47.8 °F /  8.8 °C 29.1 °F /  -1.6 °C 30.36in /  1028hPa Calm     48% 0.00in /  0mm 0.0 W/m2
02:07 47.8 °F /  8.8 °C 29.1 °F /  -1.6 °C 30.36in /  1028hPa Calm     48% 0.00in /  0mm 0.0 W/m2
02:13 47.8 °F /  8.8 °C 29.1 °F /  -1.6 °C 30.36in /  1028hPa Calm     48% 0.00in /  0mm 0.0 W/m2
02:19 47.7 °F /  8.7 °C 29.5 °F /  -1.4 °C 30.37in /  1028.3hPa Calm     49% 0.00in /  0mm 0.0 W/m2
02:26 47.7 °F /  8.7 °C 29.5 °F /  -1.4 °C 30.36in /  1028hPa Calm     49% 0.00in /  0mm 0.0 W/m2
02:32 47.5 °F /  8.6 °C 29.3 °F /  -1.5 °C 30.36in /  1028hPa Calm     49% 0.00in /  0mm 0.0 W/m2
02:38 47.3 °F /  8.5 °C 29.1 °F /  -1.6 °C 30.36in /  1028hPa Calm   1.0mph /  1.6km/h 49% 0.00in /  0mm 0.0 W/m2
02:44 47.1 °F /  8.4 °C 29.5 °F /  -1.4 °C 30.36in /  1028hPa Calm     50% 0.00in /  0mm 0.0 W/m2
02:50 47.1 °F /  8.4 °C 29.5 °F /  -1.4 °C 30.37in /  1028.3hPa Calm     50% 0.00in /  0mm 0.0 W/m2
02:56 47.1 °F /  8.4 °C 29.5 °F /  -1.4 °C 30.36in /  1028hPa SE 0.9mph /  1.4km/h 2.0mph /  3.2km/h 50% 0.00in /  0mm 0.0 W/m2
03:02 47.1 °F /  8.4 °C 29.5 °F /  -1.4 °C 30.36in /  1028hPa Calm     50% 0.00in /  0mm 0.0 W/m2
03:09 47.3 °F /  8.5 °C 30.0 °F /  -1.1 °C 30.36in /  1028hPa Calm   1.0mph /  1.6km/h 51% 0.00in /  0mm 0.0 W/m2
03:15 47.1 °F /  8.4 °C 29.5 °F /  -1.4 °C 30.36in /  1028hPa Calm     50% 0.00in /  0mm 0.0 W/m2
03:21 46.9 °F /  8.3 °C 29.3 °F /  -1.5 °C 30.36in /  1028hPa Calm     50% 0.00in /  0mm 0.0 W/m2
03:27 46.9 °F /  8.3 °C 29.3 °F /  -1.5 °C 30.36in /  1028hPa Calm     50% 0.00in /  0mm 0.0 W/m2
03:33 46.8 °F /  8.2 °C 29.7 °F /  -1.3 °C 30.36in /  1028hPa Calm     51% 0.00in /  0mm 0.0 W/m2
03:39 46.6 °F /  8.1 °C 29.5 °F /  -1.4 °C 30.37in /  1028.3hPa Calm     51% 0.00in /  0mm 0.0 W/m2
03:45 46.2 °F /  7.9 °C 29.1 °F /  -1.6 °C 30.37in /  1028.3hPa Calm     51% 0.00in /  0mm 0.0 W/m2
03:51 46.0 °F /  7.8 °C 28.4 °F /  -2 °C 30.37in /  1028.3hPa Calm   2.0mph /  3.2km/h 50% 0.00in /  0mm 0.0 W/m2
03:57 46.0 °F /  7.8 °C 28.9 °F /  -1.7 °C 30.37in /  1028.3hPa Calm     51% 0.00in /  0mm 0.0 W/m2
04:03 45.9 °F /  7.7 °C 29.3 °F /  -1.5 °C 30.37in /  1028.3hPa Calm     52% 0.00in /  0mm 0.0 W/m2
04:09 45.9 °F /  7.7 °C 29.3 °F /  -1.5 °C 30.37in /  1028.3hPa Calm     52% 0.00in /  0mm 0.0 W/m2
04:15 46.0 °F /  7.8 °C 29.8 °F /  -1.2 °C 30.37in /  1028.3hPa Calm     53% 0.00in /  0mm 0.0 W/m2
04:21 46.2 °F /  7.9 °C 30.6 °F /  -0.8 °C 30.37in /  1028.3hPa Calm     54% 0.00in /  0mm 0.0 W/m2
04:23 46.2 °F /  7.9 °C 30.9 °F /  -0.6 °C 30.15in /  1020.9hPa Calm   1.0mph /  1.6km/h 55% 0.00in /  0mm 0.0 W/m2
04:35 47.5 °F /  8.6 °C 31.3 °F /  -0.4 °C 30.37in /  1028.3hPa Calm   3.0mph /  4.8km/h 53% 0.00in /  0mm 0.0 W/m2
04:41 47.8 °F /  8.8 °C 31.5 °F /  -0.3 °C 30.38in /  1028.7hPa Calm   1.0mph /  1.6km/h 53% 0.00in /  0mm 0.0 W/m2
04:43 48.0 °F /  8.9 °C 31.6 °F /  -0.2 °C 30.38in /  1028.7hPa Calm   1.0mph /  1.6km/h 53% 0.00in /  0mm 0.0 W/m2
04:49 48.0 °F /  8.9 °C 31.3 °F /  -0.4 °C 30.38in /  1028.7hPa Calm   1.0mph /  1.6km/h 52% 0.00in /  0mm 0.0 W/m2
04:53 48.0 °F /  8.9 °C 31.3 °F /  -0.4 °C 30.38in /  1028.7hPa Calm   2.0mph /  3.2km/h 52% 0.00in /  0mm 0.0 W/m2
04:59 48.0 °F /  8.9 °C 31.3 °F /  -0.4 °C 30.38in /  1028.7hPa Calm   1.0mph /  1.6km/h 52% 0.00in /  0mm 0.0 W/m2
05:05 48.0 °F /  8.9 °C 31.3 °F /  -0.4 °C 30.39in /  1029hPa Calm   3.0mph /  4.8km/h 52% 0.00in /  0mm 0.0 W/m2
05:09 48.0 °F /  8.9 °C 31.3 °F /  -0.4 °C 30.39in /  1029hPa ENE 0.9mph /  1.4km/h 1.0mph /  1.6km/h 52% 0.00in /  0mm 0.0 W/m2
05:15 47.8 °F /  8.8 °C 31.5 °F /  -0.3 °C 30.39in /  1029hPa Calm   2.0mph /  3.2km/h 53% 0.00in /  0mm 0.0 W/m2
05:21 47.8 °F /  8.8 °C 31.5 °F /  -0.3 °C 30.39in /  1029hPa Calm   3.0mph /  4.8km/h 53% 0.00in /  0mm 0.0 W/m2
05:27 47.7 °F /  8.7 °C 31.8 °F /  -0.1 °C 30.38in /  1028.7hPa Calm   2.0mph /  3.2km/h 54% 0.00in /  0mm 0.0 W/m2
05:33 47.7 °F /  8.7 °C 31.8 °F /  -0.1 °C 30.38in /  1028.7hPa Calm   1.0mph /  1.6km/h 54% 0.00in /  0mm 0.0 W/m2
05:39 47.7 °F /  8.7 °C 32.4 °F /  0.2 °C 30.39in /  1029hPa Calm   1.0mph /  1.6km/h 55% 0.00in /  0mm 0.0 W/m2
05:45 47.7 °F /  8.7 °C 32.4 °F /  0.2 °C 30.39in /  1029hPa ENE 0.9mph /  1.4km/h 1.0mph /  1.6km/h 55% 0.00in /  0mm 0.0 W/m2
05:51 47.7 °F /  8.7 °C 32.7 °F /  0.4 °C 30.39in /  1029hPa Calm   1.0mph /  1.6km/h 56% 0.00in /  0mm 0.0 W/m2
05:55 47.7 °F /  8.7 °C 32.7 °F /  0.4 °C 30.39in /  1029hPa Calm   1.0mph /  1.6km/h 56% 0.00in /  0mm 0.0 W/m2
06:01 47.7 °F /  8.7 °C 32.7 °F /  0.4 °C 30.39in /  1029hPa Calm   1.0mph /  1.6km/h 56% 0.00in /  0mm 0.0 W/m2
06:07 47.7 °F /  8.7 °C 33.3 °F /  0.7 °C 30.39in /  1029hPa Calm   2.0mph /  3.2km/h 57% 0.00in /  0mm 0.0 W/m2
06:13 47.7 °F /  8.7 °C 33.3 °F /  0.7 °C 30.39in /  1029hPa Calm   2.0mph /  3.2km/h 57% 0.00in /  0mm 0.0 W/m2
06:19 47.7 °F /  8.7 °C 33.3 °F /  0.7 °C 30.39in /  1029hPa Calm   3.0mph /  4.8km/h 57% 0.00in /  0mm 0.0 W/m2
06:25 47.7 °F /  8.7 °C 33.6 °F /  0.9 °C 30.39in /  1029hPa Calm   1.0mph /  1.6km/h 58% 0.00in /  0mm 0.0 W/m2
06:31 47.7 °F /  8.7 °C 33.6 °F /  0.9 °C 30.39in /  1029hPa Calm   1.0mph /  1.6km/h 58% 0.00in /  0mm 7.0 W/m2
06:37 47.7 °F /  8.7 °C 33.6 °F /  0.9 °C 30.40in /  1029.3hPa Calm   1.0mph /  1.6km/h 58% 0.00in /  0mm 9.0 W/m2
06:43 47.8 °F /  8.8 °C 34.2 °F /  1.2 °C 30.40in /  1029.3hPa NE 0.9mph /  1.4km/h 2.0mph /  3.2km/h 59% 0.00in /  0mm 12.0 W/m2
06:49 48.0 °F /  8.9 °C 34.3 °F /  1.3 °C 30.40in /  1029.3hPa Calm   1.0mph /  1.6km/h 59% 0.00in /  0mm 14.0 W/m2
06:55 48.4 °F /  9.1 °C 34.7 °F /  1.5 °C 30.40in /  1029.3hPa Calm   2.0mph /  3.2km/h 59% 0.00in /  0mm 16.0 W/m2
07:01 48.6 °F /  9.2 °C 34.9 °F /  1.6 °C 30.40in /  1029.3hPa NE 0.9mph /  1.4km/h 2.0mph /  3.2km/h 59% 0.00in /  0mm 18.0 W/m2
07:07 48.9 °F /  9.4 °C 35.6 °F /  2 °C 30.40in /  1029.3hPa Calm     60% 0.00in /  0mm 19.0 W/m2
07:13 48.9 °F /  9.4 °C 35.6 °F /  2 °C 30.40in /  1029.3hPa Calm     60% 0.00in /  0mm 21.0 W/m2
07:19 49.3 °F /  9.6 °C 36.0 °F /  2.2 °C 30.40in /  1029.3hPa Calm     60% 0.00in /  0mm 21.0 W/m2
07:25 49.5 °F /  9.7 °C 36.1 °F /  2.3 °C 30.40in /  1029.3hPa Calm     60% 0.00in /  0mm 23.0 W/m2
07:31 49.8 °F /  9.9 °C 36.1 °F /  2.3 °C 30.40in /  1029.3hPa Calm     59% 0.00in /  0mm 26.0 W/m2
07:37 50.4 °F /  10.2 °C 36.5 °F /  2.5 °C 30.40in /  1029.3hPa Calm   2.0mph /  3.2km/h 59% 0.00in /  0mm 26.0 W/m2
07:43 51.1 °F /  10.6 °C 36.9 °F /  2.7 °C 30.41in /  1029.7hPa Calm   2.0mph /  3.2km/h 58% 0.00in /  0mm 26.0 W/m2
07:50 51.6 °F /  10.9 °C 36.9 °F /  2.7 °C 30.41in /  1029.7hPa Calm     57% 0.00in /  0mm 28.0 W/m2
07:55 52.5 °F /  11.4 °C 36.9 °F /  2.7 °C 30.41in /  1029.7hPa Calm   2.0mph /  3.2km/h 55% 0.00in /  0mm 30.0 W/m2
08:01 53.8 °F /  12.1 °C 37.0 °F /  2.8 °C 30.41in /  1029.7hPa Calm   3.0mph /  4.8km/h 53% 0.00in /  0mm 30.0 W/m2
08:07 55.0 °F /  12.8 °C 37.2 °F /  2.9 °C 30.41in /  1029.7hPa Calm   4.0mph /  6.4km/h 51% 0.00in /  0mm 32.0 W/m2
08:13 56.1 °F /  13.4 °C 37.2 °F /  2.9 °C 30.41in /  1029.7hPa Calm   5.0mph /  8km/h 49% 0.00in /  0mm 33.0 W/m2
08:19 57.2 °F /  14 °C 37.8 °F /  3.2 °C 30.41in /  1029.7hPa ENE 0.9mph /  1.4km/h 2.0mph /  3.2km/h 48% 0.00in /  0mm 35.0 W/m2
08:25 57.9 °F /  14.4 °C 37.8 °F /  3.2 °C 30.41in /  1029.7hPa ESE 0.9mph /  1.4km/h 4.0mph /  6.4km/h 47% 0.00in /  0mm 380.0 W/m2
08:31 59.4 °F /  15.2 °C 37.9 °F /  3.3 °C 30.41in /  1029.7hPa NE 2.0mph /  3.2km/h 4.0mph /  6.4km/h 45% 0.00in /  0mm 397.0 W/m2
08:37 60.6 °F /  15.9 °C 37.9 °F /  3.3 °C 30.41in /  1029.7hPa Calm   2.0mph /  3.2km/h 43% 0.00in /  0mm 418.0 W/m2
08:43 61.7 °F /  16.5 °C 37.8 °F /  3.2 °C 30.41in /  1029.7hPa NE 0.9mph /  1.4km/h 3.0mph /  4.8km/h 41% 0.00in /  0mm 439.0 W/m2
08:49 62.8 °F /  17.1 °C 38.1 °F /  3.4 °C 30.41in /  1029.7hPa Calm   1.0mph /  1.6km/h 40% 0.00in /  0mm 457.0 W/m2
08:55 63.7 °F /  17.6 °C 37.6 °F /  3.1 °C 30.41in /  1029.7hPa NNW 2.0mph /  3.2km/h 4.0mph /  6.4km/h 38% 0.00in /  0mm 476.0 W/m2
09:01 64.2 °F /  17.9 °C 38.1 °F /  3.4 °C 30.41in /  1029.7hPa Calm   2.0mph /  3.2km/h 38% 0.00in /  0mm 494.0 W/m2
09:07 64.8 °F /  18.2 °C 38.5 °F /  3.6 °C 30.41in /  1029.7hPa NE 2.9mph /  4.7km/h 4.0mph /  6.4km/h 38% 0.00in /  0mm 512.0 W/m2
09:14 64.9 °F /  18.3 °C 38.1 °F /  3.4 °C 30.41in /  1029.7hPa North 0.9mph /  1.4km/h 7.0mph /  11.3km/h 37% 0.00in /  0mm 529.0 W/m2
09:20 65.7 °F /  18.7 °C 37.9 °F /  3.3 °C 30.41in /  1029.7hPa North 2.0mph /  3.2km/h 3.0mph /  4.8km/h 36% 0.00in /  0mm 545.0 W/m2
09:26 66.0 °F /  18.9 °C 38.3 °F /  3.5 °C 30.41in /  1029.7hPa SW 0.9mph /  1.4km/h 8.0mph /  12.9km/h 36% 0.00in /  0mm 559.0 W/m2
09:32 66.6 °F /  19.2 °C 38.1 °F /  3.4 °C 30.41in /  1029.7hPa Calm   1.0mph /  1.6km/h 35% 0.00in /  0mm 575.0 W/m2
09:38 66.9 °F /  19.4 °C 38.3 °F /  3.5 °C 30.41in /  1029.7hPa NW 0.9mph /  1.4km/h 4.0mph /  6.4km/h 35% 0.00in /  0mm 587.0 W/m2
09:44 67.5 °F /  19.7 °C 38.1 °F /  3.4 °C 30.41in /  1029.7hPa NE 2.0mph /  3.2km/h 3.0mph /  4.8km/h 34% 0.00in /  0mm 601.0 W/m2
09:50 67.5 °F /  19.7 °C 38.1 °F /  3.4 °C 30.40in /  1029.3hPa Calm   1.0mph /  1.6km/h 34% 0.00in /  0mm 613.0 W/m2
09:56 67.6 °F /  19.8 °C 38.3 °F /  3.5 °C 30.40in /  1029.3hPa WSW 2.0mph /  3.2km/h 2.0mph /  3.2km/h 34% 0.00in /  0mm 628.0 W/m2
10:02 67.5 °F /  19.7 °C 38.8 °F /  3.8 °C 30.40in /  1029.3hPa NNW 2.0mph /  3.2km/h 5.0mph /  8km/h 35% 0.00in /  0mm 640.0 W/m2
10:08 67.5 °F /  19.7 °C 38.1 °F /  3.4 °C 30.40in /  1029.3hPa North 2.0mph /  3.2km/h 4.0mph /  6.4km/h 34% 0.00in /  0mm 650.0 W/m2
10:14 67.8 °F /  19.9 °C 38.5 °F /  3.6 °C 30.39in /  1029hPa SW 2.0mph /  3.2km/h 2.0mph /  3.2km/h 34% 0.00in /  0mm 661.0 W/m2
10:20 67.8 °F /  19.9 °C 38.5 °F /  3.6 °C 30.39in /  1029hPa Calm   4.0mph /  6.4km/h 34% 0.00in /  0mm 671.0 W/m2
10:26 68.7 °F /  20.4 °C 38.5 °F /  3.6 °C 30.39in /  1029hPa NNW 4.9mph /  7.9km/h 6.0mph /  9.7km/h 33% 0.00in /  0mm 686.0 W/m2
10:32 69.3 °F /  20.7 °C 38.1 °F /  3.4 °C 30.38in /  1028.7hPa WNW 0.9mph /  1.4km/h 5.0mph /  8km/h 32% 0.00in /  0mm 693.0 W/m2
10:38 70.0 °F /  21.1 °C 38.8 °F /  3.8 °C 30.38in /  1028.7hPa Calm   1.0mph /  1.6km/h 32% 0.00in /  0mm 698.0 W/m2
10:44 70.5 °F /  21.4 °C 38.5 °F /  3.6 °C 30.38in /  1028.7hPa Calm   4.0mph /  6.4km/h 31% 0.00in /  0mm 705.0 W/m2
10:50 70.9 °F /  21.6 °C 38.7 °F /  3.7 °C 30.38in /  1028.7hPa Calm   1.0mph /  1.6km/h 31% 0.00in /  0mm 717.0 W/m2
10:56 71.4 °F /  21.9 °C 38.3 °F /  3.5 °C 30.37in /  1028.3hPa Calm   1.0mph /  1.6km/h 30% 0.00in /  0mm 747.0 W/m2
11:02 71.8 °F /  22.1 °C 37.8 °F /  3.2 °C 30.37in /  1028.3hPa West 0.9mph /  1.4km/h 5.0mph /  8km/h 29% 0.00in /  0mm 120.0 W/m2
11:08 71.2 °F /  21.8 °C 38.3 °F /  3.5 °C 30.36in /  1028hPa Calm   4.0mph /  6.4km/h 30% 0.00in /  0mm 837.0 W/m2
11:14 71.1 °F /  21.7 °C 38.1 °F /  3.4 °C 30.36in /  1028hPa WSW 2.0mph /  3.2km/h 6.0mph /  9.7km/h 30% 0.00in /  0mm 867.0 W/m2
11:20 71.1 °F /  21.7 °C 35.4 °F /  1.9 °C 30.36in /  1028hPa ENE 0.9mph /  1.4km/h 7.0mph /  11.3km/h 27% 0.00in /  0mm 239.0 W/m2
11:26 70.9 °F /  21.6 °C 34.3 °F /  1.3 °C 30.35in /  1027.7hPa Calm   3.0mph /  4.8km/h 26% 0.00in /  0mm 265.0 W/m2
11:32 70.5 °F /  21.4 °C 36.7 °F /  2.6 °C 30.35in /  1027.7hPa Calm   2.0mph /  3.2km/h 29% 0.00in /  0mm 204.0 W/m2
11:38 70.2 °F /  21.2 °C 37.2 °F /  2.9 °C 30.35in /  1027.7hPa Calm   4.0mph /  6.4km/h 30% 0.00in /  0mm 424.0 W/m2
11:44 70.0 °F /  21.1 °C 36.3 °F /  2.4 °C 30.34in /  1027.3hPa WSW 2.0mph /  3.2km/h 10.0mph /  16.1km/h 29% 0.00in /  0mm 218.0 W/m2
11:50 69.6 °F /  20.9 °C 36.9 °F /  2.7 °C 30.34in /  1027.3hPa SW 0.9mph /  1.4km/h 3.0mph /  4.8km/h 30% 0.00in /  0mm 849.0 W/m2
11:56 70.0 °F /  21.1 °C 37.0 °F /  2.8 °C 30.33in /  1027hPa Calm   4.0mph /  6.4km/h 30% 0.00in /  0mm 812.0 W/m2
12:02 71.1 °F /  21.7 °C 35.4 °F /  1.9 °C 30.33in /  1027hPa Calm   6.0mph /  9.7km/h 27% 0.00in /  0mm 851.0 W/m2
12:08 72.3 °F /  22.4 °C 35.6 °F /  2 °C 30.33in /  1027hPa East 2.9mph /  4.7km/h 9.0mph /  14.5km/h 26% 0.00in /  0mm 788.0 W/m2
12:14 72.7 °F /  22.6 °C 34.9 °F /  1.6 °C 30.32in /  1026.6hPa Calm   3.0mph /  4.8km/h 25% 0.00in /  0mm 773.0 W/m2
12:20 73.0 °F /  22.8 °C 35.1 °F /  1.7 °C 30.31in /  1026.3hPa Calm   1.0mph /  1.6km/h 25% 0.00in /  0mm 758.0 W/m2
12:22 72.9 °F /  22.7 °C 35.1 °F /  1.7 °C 30.31in /  1026.3hPa NW 0.9mph /  1.4km/h 3.0mph /  4.8km/h 25% 0.00in /  0mm 754.0 W/m2
12:28 72.9 °F /  22.7 °C 36.0 °F /  2.2 °C 30.31in /  1026.3hPa Calm   5.0mph /  8km/h 26% 0.00in /  0mm 738.0 W/m2
12:35 73.4 °F /  23 °C 36.5 °F /  2.5 °C 30.31in /  1026.3hPa Calm   7.0mph /  11.3km/h 26% 0.00in /  0mm 735.0 W/m2
12:41 73.8 °F /  23.2 °C 36.7 °F /  2.6 °C 30.30in /  1026hPa North 4.0mph /  6.4km/h 7.0mph /  11.3km/h 26% 0.00in /  0mm 740.0 W/m2
12:47 73.6 °F /  23.1 °C 35.6 °F /  2 °C 30.30in /  1026hPa NNW 4.0mph /  6.4km/h 5.0mph /  8km/h 25% 0.00in /  0mm 742.0 W/m2
12:53 73.6 °F /  23.1 °C 35.6 °F /  2 °C 30.30in /  1026hPa NNW 2.0mph /  3.2km/h 6.0mph /  9.7km/h 25% 0.00in /  0mm 722.0 W/m2
12:59 73.8 °F /  23.2 °C 35.8 °F /  2.1 °C 30.29in /  1025.6hPa SW 0.9mph /  1.4km/h 1.0mph /  1.6km/h 25% 0.00in /  0mm 705.0 W/m2
13:05 73.2 °F /  22.9 °C 35.2 °F /  1.8 °C 30.29in /  1025.6hPa ENE 0.9mph /  1.4km/h 3.0mph /  4.8km/h 25% 0.00in /  0mm 701.0 W/m2
13:11 73.6 °F /  23.1 °C 34.5 °F /  1.4 °C 30.28in /  1025.3hPa Calm   5.0mph /  8km/h 24% 0.00in /  0mm 698.0 W/m2
13:17 73.6 °F /  23.1 °C 33.4 °F /  0.8 °C 30.28in /  1025.3hPa Calm   4.0mph /  6.4km/h 23% 0.00in /  0mm 684.0 W/m2
13:24 74.1 °F /  23.4 °C 34.0 °F /  1.1 °C 30.28in /  1025.3hPa Calm   10.0mph /  16.1km/h 23% 0.00in /  0mm 675.0 W/m2
13:30 74.5 °F /  23.6 °C 33.1 °F /  0.6 °C 30.28in /  1025.3hPa NNE 6.0mph /  9.7km/h 6.0mph /  9.7km/h 22% 0.00in /  0mm 673.0 W/m2
13:36 74.1 °F /  23.4 °C 32.9 °F /  0.5 °C 30.27in /  1024.9hPa Calm   2.0mph /  3.2km/h 22% 0.00in /  0mm 656.0 W/m2
13:42 74.1 °F /  23.4 °C 32.9 °F /  0.5 °C 30.27in /  1024.9hPa NE 0.9mph /  1.4km/h 7.0mph /  11.3km/h 22% 0.00in /  0mm 659.0 W/m2
13:48 74.5 °F /  23.6 °C 33.1 °F /  0.6 °C 30.27in /  1024.9hPa East 2.0mph /  3.2km/h 5.0mph /  8km/h 22% 0.00in /  0mm 564.0 W/m2
13:54 74.3 °F /  23.5 °C 33.1 °F /  0.6 °C 30.27in /  1024.9hPa SSW 4.0mph /  6.4km/h 7.0mph /  11.3km/h 22% 0.00in /  0mm 642.0 W/m2
14:00 73.8 °F /  23.2 °C 33.6 °F /  0.9 °C 30.26in /  1024.6hPa NE 4.9mph /  7.9km/h 5.0mph /  8km/h 23% 0.00in /  0mm 606.0 W/m2
14:06 73.9 °F /  23.3 °C 32.7 °F /  0.4 °C 30.26in /  1024.6hPa SE 2.0mph /  3.2km/h 4.0mph /  6.4km/h 22% 0.00in /  0mm 594.0 W/m2
14:12 74.1 °F /  23.4 °C 32.9 °F /  0.5 °C 30.26in /  1024.6hPa Calm   3.0mph /  4.8km/h 22% 0.00in /  0mm 596.0 W/m2
14:19 74.7 °F /  23.7 °C 34.3 °F /  1.3 °C 30.25in /  1024.3hPa NW 0.9mph /  1.4km/h 1.0mph /  1.6km/h 23% 0.00in /  0mm 571.0 W/m2
14:25 75.0 °F /  23.9 °C 34.7 °F /  1.5 °C 30.25in /  1024.3hPa West 2.0mph /  3.2km/h 7.0mph /  11.3km/h 23% 0.00in /  0mm 548.0 W/m2
14:31 74.8 °F /  23.8 °C 34.5 °F /  1.4 °C 30.25in /  1024.3hPa SW 2.0mph /  3.2km/h 6.0mph /  9.7km/h 23% 0.00in /  0mm 538.0 W/m2
14:37 74.7 °F /  23.7 °C 34.3 °F /  1.3 °C 30.25in /  1024.3hPa SW 4.0mph /  6.4km/h 4.0mph /  6.4km/h 23% 0.00in /  0mm 536.0 W/m2
14:43 74.5 °F /  23.6 °C 33.1 °F /  0.6 °C 30.25in /  1024.3hPa West 4.9mph /  7.9km/h 8.0mph /  12.9km/h 22% 0.00in /  0mm 522.0 W/m2
14:49 74.1 °F /  23.4 °C 32.9 °F /  0.5 °C 30.25in /  1024.3hPa NNW 2.9mph /  4.7km/h 5.0mph /  8km/h 22% 0.00in /  0mm 279.0 W/m2
14:55 73.9 °F /  23.3 °C 32.7 °F /  0.4 °C 30.25in /  1024.3hPa Calm   2.0mph /  3.2km/h 22% 0.00in /  0mm 499.0 W/m2
15:01 74.1 °F /  23.4 °C 32.9 °F /  0.5 °C 30.25in /  1024.3hPa NNW 2.9mph /  4.7km/h 3.0mph /  4.8km/h 22% 0.00in /  0mm 489.0 W/m2
15:08 74.7 °F /  23.7 °C 32.2 °F /  0.1 °C 30.25in /  1024.3hPa NNW 4.0mph /  6.4km/h 6.0mph /  9.7km/h 21% 0.00in /  0mm 469.0 W/m2
15:14 74.8 °F /  23.8 °C 33.4 °F /  0.8 °C 30.24in /  1023.9hPa NW 4.9mph /  7.9km/h 5.0mph /  8km/h 22% 0.00in /  0mm 443.0 W/m2
15:20 75.0 °F /  23.9 °C 32.4 °F /  0.2 °C 30.24in /  1023.9hPa NNE 2.0mph /  3.2km/h 6.0mph /  9.7km/h 21% 0.00in /  0mm 427.0 W/m2
15:26 74.8 °F /  23.8 °C 32.4 °F /  0.2 °C 30.25in /  1024.3hPa NNE 4.9mph /  7.9km/h 7.0mph /  11.3km/h 21% 0.00in /  0mm 410.0 W/m2
15:32 74.7 °F /  23.7 °C 33.3 °F /  0.7 °C 30.24in /  1023.9hPa Calm   3.0mph /  4.8km/h 22% 0.00in /  0mm 360.0 W/m2
15:38 74.5 °F /  23.6 °C 33.1 °F /  0.6 °C 30.25in /  1024.3hPa NW 0.9mph /  1.4km/h 5.0mph /  8km/h 22% 0.00in /  0mm 332.0 W/m2
15:44 74.1 °F /  23.4 °C 32.9 °F /  0.5 °C 30.25in /  1024.3hPa NNW 0.9mph /  1.4km/h 5.0mph /  8km/h 22% 0.00in /  0mm 155.0 W/m2
15:50 73.9 °F /  23.3 °C 32.7 °F /  0.4 °C 30.24in /  1023.9hPa NNW 0.9mph /  1.4km/h 6.0mph /  9.7km/h 22% 0.00in /  0mm 69.0 W/m2
15:56 73.6 °F /  23.1 °C 32.4 °F /  0.2 °C 30.24in /  1023.9hPa Calm   5.0mph /  8km/h 22% 0.00in /  0mm 70.0 W/m2
16:02 73.2 °F /  22.9 °C 32.2 °F /  0.1 °C 30.25in /  1024.3hPa ESE 0.9mph /  1.4km/h 2.0mph /  3.2km/h 22% 0.00in /  0mm 65.0 W/m2
16:08 73.0 °F /  22.8 °C 33.1 °F /  0.6 °C 30.25in /  1024.3hPa Calm   1.0mph /  1.6km/h 23% 0.00in /  0mm 70.0 W/m2
16:14 72.9 °F /  22.7 °C 32.9 °F /  0.5 °C 30.25in /  1024.3hPa NE 2.9mph /  4.7km/h 3.0mph /  4.8km/h 23% 0.00in /  0mm 69.0 W/m2
16:20 72.7 °F /  22.6 °C 32.7 °F /  0.4 °C 30.25in /  1024.3hPa Calm   2.0mph /  3.2km/h 23% 0.00in /  0mm 69.0 W/m2
16:26 72.1 °F /  22.3 °C 32.4 °F /  0.2 °C 30.25in /  1024.3hPa Calm   1.0mph /  1.6km/h 23% 0.00in /  0mm 62.0 W/m2
16:32 71.8 °F /  22.1 °C 33.1 °F /  0.6 °C 30.25in /  1024.3hPa Calm     24% 0.00in /  0mm 44.0 W/m2
16:38 71.4 °F /  21.9 °C 32.7 °F /  0.4 °C 30.25in /  1024.3hPa Calm   1.0mph /  1.6km/h 24% 0.00in /  0mm 40.0 W/m2
16:45 71.2 °F /  21.8 °C 31.5 °F /  -0.3 °C 30.25in /  1024.3hPa Calm   4.0mph /  6.4km/h 23% 0.00in /  0mm 44.0 W/m2
16:51 70.9 °F /  21.6 °C 31.3 °F /  -0.4 °C 30.26in /  1024.6hPa NNW 2.0mph /  3.2km/h 3.0mph /  4.8km/h 23% 0.00in /  0mm 39.0 W/m2
16:57 70.5 °F /  21.4 °C 32.0 °F /  0 °C 30.26in /  1024.6hPa NNW 0.9mph /  1.4km/h 4.0mph /  6.4km/h 24% 0.00in /  0mm 16.0 W/m2
17:03 70.3 °F /  21.3 °C 31.8 °F /  -0.1 °C 30.26in /  1024.6hPa Calm   2.0mph /  3.2km/h 24% 0.00in /  0mm 14.0 W/m2
17:09 70.0 °F /  21.1 °C 31.5 °F /  -0.3 °C 30.26in /  1024.6hPa NE 0.9mph /  1.4km/h 2.0mph /  3.2km/h 24% 0.00in /  0mm 12.0 W/m2
17:15 69.6 °F /  20.9 °C 32.2 °F /  0.1 °C 30.26in /  1024.6hPa Calm   1.0mph /  1.6km/h 25% 0.00in /  0mm 11.0 W/m2
17:21 69.3 °F /  20.7 °C 32.0 °F /  0 °C 30.26in /  1024.6hPa Calm     25% 0.00in /  0mm 9.0 W/m2
17:27 68.7 °F /  20.4 °C 31.5 °F /  -0.3 °C 30.26in /  1024.6hPa Calm     25% 0.00in /  0mm 5.0 W/m2
17:33 68.4 °F /  20.2 °C 32.2 °F /  0.1 °C 30.27in /  1024.9hPa Calm   1.0mph /  1.6km/h 26% 0.00in /  0mm 0.0 W/m2
17:40 67.6 °F /  19.8 °C 31.5 °F /  -0.3 °C 30.27in /  1024.9hPa Calm   1.0mph /  1.6km/h 26% 0.00in /  0mm 0.0 W/m2
17:46 67.3 °F /  19.6 °C 31.3 °F /  -0.4 °C 30.27in /  1024.9hPa Calm     26% 0.00in /  0mm 0.0 W/m2
17:52 66.6 °F /  19.2 °C 30.6 °F /  -0.8 °C 30.27in /  1024.9hPa Calm     26% 0.00in /  0mm 0.0 W/m2
17:58 65.8 °F /  18.8 °C 30.9 °F /  -0.6 °C 30.27in /  1024.9hPa Calm     27% 0.00in /  0mm 0.0 W/m2
18:04 65.5 °F /  18.6 °C 30.6 °F /  -0.8 °C 30.28in /  1025.3hPa Calm   4.0mph /  6.4km/h 27% 0.00in /  0mm 0.0 W/m2
18:10 65.1 °F /  18.4 °C 31.3 °F /  -0.4 °C 30.28in /  1025.3hPa Calm   1.0mph /  1.6km/h 28% 0.00in /  0mm 0.0 W/m2
18:16 64.9 °F /  18.3 °C 31.1 °F /  -0.5 °C 30.28in /  1025.3hPa Calm   2.0mph /  3.2km/h 28% 0.00in /  0mm 0.0 W/m2
18:23 64.8 °F /  18.2 °C 30.9 °F /  -0.6 °C 30.28in /  1025.3hPa Calm     28% 0.00in /  0mm 0.0 W/m2
18:29 64.6 °F /  18.1 °C 30.7 °F /  -0.7 °C 30.28in /  1025.3hPa Calm   1.0mph /  1.6km/h 28% 0.00in /  0mm 0.0 W/m2
18:35 64.0 °F /  17.8 °C 30.2 °F /  -1 °C 30.28in /  1025.3hPa Calm     28% 0.00in /  0mm 0.0 W/m2
18:41 63.7 °F /  17.6 °C 30.7 °F /  -0.7 °C 30.29in /  1025.6hPa NE 0.9mph /  1.4km/h 1.0mph /  1.6km/h 29% 0.00in /  0mm 0.0 W/m2
18:47 63.5 °F /  17.5 °C 29.8 °F /  -1.2 °C 30.29in /  1025.6hPa Calm   5.0mph /  8km/h 28% 0.00in /  0mm 0.0 W/m2
18:53 63.7 °F /  17.6 °C 30.0 °F /  -1.1 °C 30.29in /  1025.6hPa NE 0.9mph /  1.4km/h 2.0mph /  3.2km/h 28% 0.00in /  0mm 0.0 W/m2
19:00 63.7 °F /  17.6 °C 30.0 °F /  -1.1 °C 30.29in /  1025.6hPa Calm   1.0mph /  1.6km/h 28% 0.00in /  0mm 0.0 W/m2
19:08 63.7 °F /  17.6 °C 30.0 °F /  -1.1 °C 30.30in /  1026hPa Calm   1.0mph /  1.6km/h 28% 0.00in /  0mm 0.0 W/m2
19:14 63.7 °F /  17.6 °C 30.0 °F /  -1.1 °C 30.30in /  1026hPa ENE 2.0mph /  3.2km/h 3.0mph /  4.8km/h 28% 0.00in /  0mm 0.0 W/m2
19:20 63.9 °F /  17.7 °C 30.2 °F /  -1 °C 30.30in /  1026hPa Calm     28% 0.00in /  0mm 0.0 W/m2
19:26 63.9 °F /  17.7 °C 30.2 °F /  -1 °C 30.30in /  1026hPa Calm   1.0mph /  1.6km/h 28% 0.00in /  0mm 0.0 W/m2
19:32 63.7 °F /  17.6 °C 30.7 °F /  -0.7 °C 30.30in /  1026hPa Calm     29% 0.00in /  0mm 0.0 W/m2
19:38 63.3 °F /  17.4 °C 30.6 °F /  -0.8 °C 30.30in /  1026hPa Calm   1.0mph /  1.6km/h 29% 0.00in /  0mm 0.0 W/m2
19:45 63.0 °F /  17.2 °C 30.2 °F /  -1 °C 30.30in /  1026hPa Calm   4.0mph /  6.4km/h 29% 0.00in /  0mm 0.0 W/m2
19:51 62.8 °F /  17.1 °C 30.0 °F /  -1.1 °C 30.31in /  1026.3hPa Calm   1.0mph /  1.6km/h 29% 0.00in /  0mm 0.0 W/m2
19:57 62.6 °F /  17 °C 29.8 °F /  -1.2 °C 30.31in /  1026.3hPa Calm     29% 0.00in /  0mm 0.0 W/m2
20:03 62.4 °F /  16.9 °C 30.6 °F /  -0.8 °C 30.31in /  1026.3hPa Calm     30% 0.00in /  0mm 0.0 W/m2
20:09 62.1 °F /  16.7 °C 30.2 °F /  -1 °C 30.31in /  1026.3hPa Calm     30% 0.00in /  0mm 0.0 W/m2
20:15 62.1 °F /  16.7 °C 30.2 °F /  -1 °C 30.31in /  1026.3hPa East 2.0mph /  3.2km/h 2.0mph /  3.2km/h 30% 0.00in /  0mm 0.0 W/m2
20:21 61.9 °F /  16.6 °C 30.0 °F /  -1.1 °C 30.31in /  1026.3hPa ENE 0.9mph /  1.4km/h 1.0mph /  1.6km/h 30% 0.00in /  0mm 0.0 W/m2
20:27 61.5 °F /  16.4 °C 30.6 °F /  -0.8 °C 30.31in /  1026.3hPa Calm     31% 0.00in /  0mm 0.0 W/m2
20:34 61.3 °F /  16.3 °C 30.4 °F /  -0.9 °C 30.31in /  1026.3hPa Calm     31% 0.00in /  0mm 0.0 W/m2
20:40 61.0 °F /  16.1 °C 30.2 °F /  -1 °C 30.31in /  1026.3hPa Calm   2.0mph /  3.2km/h 31% 0.00in /  0mm 0.0 W/m2
20:46 60.6 °F /  15.9 °C 30.6 °F /  -0.8 °C 30.31in /  1026.3hPa ENE 0.9mph /  1.4km/h 1.0mph /  1.6km/h 32% 0.00in /  0mm 0.0 W/m2
20:52 60.4 °F /  15.8 °C 30.4 °F /  -0.9 °C 30.31in /  1026.3hPa Calm   1.0mph /  1.6km/h 32% 0.00in /  0mm 0.0 W/m2
20:58 60.1 °F /  15.6 °C 30.2 °F /  -1 °C 30.31in /  1026.3hPa Calm     32% 0.00in /  0mm 0.0 W/m2
21:04 60.1 °F /  15.6 °C 30.2 °F /  -1 °C 30.31in /  1026.3hPa Calm     32% 0.00in /  0mm 0.0 W/m2
21:10 59.7 °F /  15.4 °C 29.8 °F /  -1.2 °C 30.31in /  1026.3hPa Calm   1.0mph /  1.6km/h 32% 0.00in /  0mm 0.0 W/m2
21:17 59.7 °F /  15.4 °C 30.6 °F /  -0.8 °C 30.31in /  1026.3hPa Calm   2.0mph /  3.2km/h 33% 0.00in /  0mm 0.0 W/m2
21:23 59.5 °F /  15.3 °C 30.4 °F /  -0.9 °C 30.31in /  1026.3hPa Calm     33% 0.00in /  0mm 0.0 W/m2
21:29 59.4 °F /  15.2 °C 30.2 °F /  -1 °C 30.31in /  1026.3hPa Calm     33% 0.00in /  0mm 0.0 W/m2
21:35 59.2 °F /  15.1 °C 30.0 °F /  -1.1 °C 30.31in /  1026.3hPa Calm     33% 0.00in /  0mm 0.0 W/m2
21:41 58.6 °F /  14.8 °C 30.4 °F /  -0.9 °C 30.31in /  1026.3hPa Calm   1.0mph /  1.6km/h 34% 0.00in /  0mm 0.0 W/m2
21:47 58.5 °F /  14.7 °C 30.2 °F /  -1 °C 30.31in /  1026.3hPa Calm   1.0mph /  1.6km/h 34% 0.00in /  0mm 0.0 W/m2
21:53 57.9 °F /  14.4 °C 29.7 °F /  -1.3 °C 30.31in /  1026.3hPa Calm     34% 0.00in /  0mm 0.0 W/m2
22:00 57.6 °F /  14.2 °C 30.0 °F /  -1.1 °C 30.31in /  1026.3hPa Calm     35% 0.00in /  0mm 0.0 W/m2
22:06 57.2 °F /  14 °C 29.8 °F /  -1.2 °C 30.31in /  1026.3hPa Calm     35% 0.00in /  0mm 0.0 W/m2
22:12 56.8 °F /  13.8 °C 29.5 °F /  -1.4 °C 30.31in /  1026.3hPa Calm     35% 0.00in /  0mm 0.0 W/m2
22:18 56.7 °F /  13.7 °C 30.0 °F /  -1.1 °C 30.31in /  1026.3hPa Calm     36% 0.00in /  0mm 0.0 W/m2
22:24 56.3 °F /  13.5 °C 29.7 °F /  -1.3 °C 30.30in /  1026hPa Calm     36% 0.00in /  0mm 0.0 W/m2
22:30 55.9 °F /  13.3 °C 30.0 °F /  -1.1 °C 30.30in /  1026hPa Calm     37% 0.00in /  0mm 0.0 W/m2
22:36 55.8 °F /  13.2 °C 29.8 °F /  -1.2 °C 30.30in /  1026hPa Calm     37% 0.00in /  0mm 0.0 W/m2
22:42 55.2 °F /  12.9 °C 30.0 °F /  -1.1 °C 30.30in /  1026hPa Calm     38% 0.00in /  0mm 0.0 W/m2
22:49 55.0 °F /  12.8 °C 29.8 °F /  -1.2 °C 30.30in /  1026hPa Calm     38% 0.00in /  0mm 0.0 W/m2
22:55 54.7 °F /  12.6 °C 29.5 °F /  -1.4 °C 30.30in /  1026hPa Calm     38% 0.00in /  0mm 0.0 W/m2
23:01 54.3 °F /  12.4 °C 29.8 °F /  -1.2 °C 30.31in /  1026.3hPa North 4.9mph /  7.9km/h 5.0mph /  8km/h 39% 0.00in /  0mm 0.0 W/m2
23:07 54.9 °F /  12.7 °C 29.7 °F /  -1.3 °C 30.31in /  1026.3hPa Calm   4.0mph /  6.4km/h 38% 0.00in /  0mm 0.0 W/m2
23:13 55.4 °F /  13 °C 29.5 °F /  -1.4 °C 30.31in /  1026.3hPa Calm     37% 0.00in /  0mm 0.0 W/m2
23:19 55.8 °F /  13.2 °C 29.8 °F /  -1.2 °C 30.31in /  1026.3hPa Calm   2.0mph /  3.2km/h 37% 0.00in /  0mm 0.0 W/m2
23:25 55.9 °F /  13.3 °C 30.0 °F /  -1.1 °C 30.31in /  1026.3hPa Calm   3.0mph /  4.8km/h 37% 0.00in /  0mm 0.0 W/m2
23:31 55.8 °F /  13.2 °C 29.8 °F /  -1.2 °C 30.31in /  1026.3hPa Calm   3.0mph /  4.8km/h 37% 0.00in /  0mm 0.0 W/m2
23:37 55.6 °F /  13.1 °C 29.7 °F /  -1.3 °C 30.31in /  1026.3hPa Calm   4.0mph /  6.4km/h 37% 0.00in /  0mm 0.0 W/m2
23:43 55.4 °F /  13 °C 29.5 °F /  -1.4 °C 30.31in /  1026.3hPa Calm   1.0mph /  1.6km/h 37% 0.00in /  0mm 0.0 W/m2
23:50 55.0 °F /  12.8 °C 29.8 °F /  -1.2 °C 30.31in /  1026.3hPa Calm   2.0mph /  3.2km/h 38% 0.00in /  0mm 0.0 W/m2
23:56 54.9 °F /  12.7 °C 29.7 °F /  -1.3 °C 30.31in /  1026.3hPa Calm   1.0mph /  1.6km/h 38% 0.00in /  0mm 0.0 W/m2
Olympia, Windhoek, Namibia
Compliments of Weather Underground - 3 mb